Time;durP1;ratioP1;P1;durP2;ratioP2;P2;SDS_P1;SDS_P2;PMS_P1;PMS_P2;Temp;Humidity;BMP_temperature;BMP_pressure;BME280_temperature;BME280_humidity;BME280_pressure;Samples;Min_cycle;Max_cycle;Signal;HPM_P1;HPM_P2
2021/09/10 00:00:15;;;;;;;13.02;10.25;;;23.80;89.40;;;;;;5055975;28;20025;-82
2021/09/10 00:02:40;;;;;;;15.65;10.70;;;23.80;89.30;;;;;;5070036;28;20028;-84
2021/09/10 00:05:08;;;;;;;12.63;10.88;;;23.70;89.20;;;;;;5058642;28;20520;-83
2021/09/10 00:07:34;;;;;;;13.73;10.73;;;23.70;89.30;;;;;;5093254;28;20020;-83
2021/09/10 00:10:00;;;;;;;14.93;10.85;;;23.70;89.30;;;;;;5054706;28;20426;-83
2021/09/10 00:12:25;;;;;;;12.82;11.00;;;23.70;89.40;;;;;;5049428;28;20088;-84
2021/09/10 00:14:51;;;;;;;11.98;10.38;;;23.60;89.50;;;;;;5071586;28;20028;-83
2021/09/10 00:17:17;;;;;;;14.80;11.10;;;23.60;89.60;;;;;;5064096;28;20511;-83
2021/09/10 00:19:42;;;;;;;15.38;11.18;;;23.50;89.80;;;;;;5063185;28;20398;-84
2021/09/10 00:22:08;;;;;;;13.55;11.57;;;23.50;90.00;;;;;;5074680;28;20531;-83
2021/09/10 00:24:34;;;;;;;13.50;11.63;;;23.40;90.10;;;;;;5074698;28;20418;-82
2021/09/10 00:26:59;;;;;;;14.00;11.60;;;23.40;90.20;;;;;;5056383;28;20464;-83
2021/09/10 00:29:26;;;;;;;13.20;11.82;;;23.40;90.30;;;;;;5065212;28;20159;-83
2021/09/10 00:31:51;;;;;;;13.30;11.88;;;23.30;90.30;;;;;;5082387;28;20035;-83
2021/09/10 00:34:17;;;;;;;13.82;12.30;;;23.30;90.30;;;;;;5088649;28;20036;-83
2021/09/10 00:36:45;;;;;;;14.80;11.85;;;23.30;90.40;;;;;;5073284;28;20035;-88
2021/09/10 00:39:12;;;;;;;13.10;11.73;;;23.30;90.40;;;;;;5054533;28;20472;-83
2021/09/10 00:41:38;;;;;;;13.77;12.07;;;23.30;90.50;;;;;;5082271;28;20044;-83
2021/09/10 00:44:03;;;;;;;14.65;11.57;;;23.20;90.50;;;;;;5074375;28;20380;-83
2021/09/10 00:46:30;;;;;;;15.48;12.48;;;23.20;90.50;;;;;;5058309;28;20017;-84
2021/09/10 00:48:56;;;;;;;14.93;11.77;;;23.20;90.50;;;;;;5074895;28;20384;-83
2021/09/10 00:51:22;;;;;;;13.05;11.50;;;23.20;90.60;;;;;;5090394;28;20027;-84
2021/09/10 00:53:48;;;;;;;13.85;11.80;;;23.20;90.60;;;;;;5074439;28;20036;-89
2021/09/10 00:56:14;;;;;;;14.15;12.13;;;23.20;90.60;;;;;;5080611;28;20038;-83
2021/09/10 00:58:40;;;;;;;14.57;11.75;;;23.20;90.70;;;;;;5091419;28;20024;-88
2021/09/10 01:01:05;;;;;;;13.70;12.30;;;23.20;90.60;;;;;;5079083;28;20035;-85
2021/09/10 01:03:32;;;;;;;13.63;12.20;;;23.20;90.60;;;;;;5080063;28;20044;-87
2021/09/10 01:05:58;;;;;;;13.82;12.35;;;23.20;90.70;;;;;;5079894;28;20021;-86
2021/09/10 01:08:26;;;;;;;14.95;12.32;;;23.20;90.70;;;;;;5076582;28;20111;-83
2021/09/10 01:10:52;;;;;;;14.50;12.90;;;23.10;90.60;;;;;;5087241;28;20639;-83
2021/09/10 01:13:19;;;;;;;15.90;13.05;;;23.10;90.60;;;;;;5022448;28;20119;-83
2021/09/10 01:15:45;;;;;;;15.23;12.75;;;23.10;90.60;;;;;;5059879;28;20406;-83
2021/09/10 01:18:11;;;;;;;13.68;12.05;;;23.00;90.60;;;;;;5057635;28;20036;-83
2021/09/10 01:20:37;;;;;;;13.57;12.10;;;23.00;90.80;;;;;;5057502;28;20053;-84
2021/09/10 01:23:03;;;;;;;13.93;12.10;;;23.00;90.60;;;;;;5073416;28;20375;-82
2021/09/10 01:25:28;;;;;;;14.88;12.73;;;22.90;90.60;;;;;;5060251;28;20024;-83
2021/09/10 01:27:57;;;;;;;13.98;12.35;;;22.90;90.70;;;;;;5059811;28;20036;-83
2021/09/10 01:30:28;;;;;;;14.90;12.98;;;22.90;90.80;;;;;;5075429;28;20016;-83
2021/09/10 01:32:54;;;;;;;15.23;12.15;;;22.80;90.80;;;;;;5063109;28;20052;-82
2021/09/10 01:35:20;;;;;;;14.60;12.45;;;22.80;90.90;;;;;;5073690;28;20024;-83
2021/09/10 01:37:47;;;;;;;15.40;12.82;;;22.80;91.00;;;;;;5073851;28;20028;-83
2021/09/10 01:40:13;;;;;;;14.40;12.88;;;22.70;91.10;;;;;;5053835;28;20055;-82
2021/09/10 01:42:39;;;;;;;13.63;12.23;;;22.70;91.10;;;;;;5062640;28;20080;-84
2021/09/10 01:45:07;;;;;;;15.18;13.32;;;22.70;91.10;;;;;;5051839;28;20464;-82
2021/09/10 01:47:35;;;;;;;13.43;11.93;;;22.70;91.20;;;;;;5062653;28;20028;-83
2021/09/10 01:50:02;;;;;;;14.85;12.65;;;22.70;91.20;;;;;;5073343;28;20115;-83
2021/09/10 01:52:28;;;;;;;14.55;12.73;;;22.70;91.20;;;;;;5069169;28;20021;-83
2021/09/10 01:54:53;;;;;;;14.98;12.77;;;22.70;91.30;;;;;;5037533;28;20079;-83
2021/09/10 01:57:19;;;;;;;15.68;12.88;;;22.60;91.20;;;;;;5028242;28;20033;-84
2021/09/10 01:59:46;;;;;;;17.50;13.00;;;22.60;91.30;;;;;;5053722;28;20044;-84
2021/09/10 02:02:11;;;;;;;14.68;12.27;;;22.60;91.40;;;;;;5065854;28;20083;-83
2021/09/10 02:04:37;;;;;;;15.27;13.13;;;22.60;91.40;;;;;;5037499;28;20029;-85
2021/09/10 02:07:04;;;;;;;18.63;13.02;;;22.60;91.50;;;;;;5027057;28;20389;-83
2021/09/10 02:09:30;;;;;;;15.70;12.90;;;22.50;91.50;;;;;;5066183;28;20021;-83
2021/09/10 02:11:55;;;;;;;15.70;13.10;;;22.50;91.60;;;;;;5057527;28;20039;-84
2021/09/10 02:14:21;;;;;;;14.95;12.02;;;22.50;91.50;;;;;;5073702;28;20036;-85
2021/09/10 02:16:46;;;;;;;14.02;11.77;;;22.50;91.60;;;;;;5074069;28;20077;-84
2021/09/10 02:19:12;;;;;;;15.32;11.48;;;22.40;91.60;;;;;;5074013;28;20489;-82
2021/09/10 02:21:38;;;;;;;13.80;12.10;;;22.40;91.60;;;;;;5054174;28;20028;-83
2021/09/10 02:24:04;;;;;;;13.40;11.23;;;22.40;91.70;;;;;;5073896;28;20040;-82
2021/09/10 02:26:30;;;;;;;13.63;11.70;;;22.40;91.80;;;;;;5074019;28;20031;-84
2021/09/10 02:28:56;;;;;;;13.38;11.40;;;22.30;91.70;;;;;;5073705;28;20032;-83
2021/09/10 02:31:22;;;;;;;13.18;11.77;;;22.30;91.80;;;;;;5074812;28;20025;-83
2021/09/10 02:33:47;;;;;;;13.52;11.57;;;22.30;91.80;;;;;;5060150;28;20120;-85
2021/09/10 02:36:13;;;;;;;15.20;11.23;;;22.30;91.80;;;;;;5074719;28;20025;-84
2021/09/10 02:38:39;;;;;;;14.75;12.30;;;22.30;92.20;;;;;;5060215;28;20143;-83
2021/09/10 02:41:05;;;;;;;15.43;11.98;;;22.30;91.90;;;;;;5039442;28;20094;-83
2021/09/10 02:43:30;;;;;;;12.70;11.38;;;22.30;91.90;;;;;;5045203;28;20044;-83
2021/09/10 02:45:56;;;;;;;13.63;11.20;;;22.30;91.90;;;;;;5037509;28;20027;-84
2021/09/10 02:48:21;;;;;;;12.40;10.75;;;22.30;91.90;;;;;;5074301;28;20051;-83
2021/09/10 02:50:47;;;;;;;14.98;11.70;;;22.30;91.90;;;;;;5055262;28;20024;-83
2021/09/10 02:53:13;;;;;;;12.90;11.50;;;22.30;91.90;;;;;;5044047;28;20033;-83
2021/09/10 02:55:38;;;;;;;13.20;11.65;;;22.20;91.90;;;;;;5073526;28;20050;-84
2021/09/10 02:58:04;;;;;;;16.10;11.88;;;22.20;91.90;;;;;;5073432;28;20033;-83
2021/09/10 03:00:30;;;;;;;13.60;11.32;;;22.20;91.90;;;;;;5072092;28;20024;-84
2021/09/10 03:02:55;;;;;;;14.95;11.52;;;22.20;91.80;;;;;;5070339;28;20017;-92
2021/09/10 03:05:21;;;;;;;12.40;10.90;;;22.20;91.80;;;;;;5036646;28;20032;-83
2021/09/10 03:07:47;;;;;;;13.80;11.48;;;22.20;91.70;;;;;;5041063;28;20032;-84
2021/09/10 03:10:12;;;;;;;12.30;10.75;;;22.10;91.80;;;;;;5053086;28;20017;-83
2021/09/10 03:12:39;;;;;;;13.77;11.70;;;22.10;91.80;;;;;;5062168;28;20392;-83
2021/09/10 03:15:07;;;;;;;11.55;10.15;;;22.10;91.70;;;;;;5066626;28;20604;-83
2021/09/10 03:17:33;;;;;;;12.63;10.65;;;22.10;91.80;;;;;;5039085;28;20120;-84
2021/09/10 03:19:58;;;;;;;11.93;10.20;;;22.00;91.80;;;;;;5058753;28;20174;-84
2021/09/10 03:22:24;;;;;;;13.25;10.15;;;22.00;91.80;;;;;;5056096;28;20102;-84
2021/09/10 03:24:50;;;;;;;13.65;11.07;;;22.00;91.80;;;;;;5058300;28;20036;-83
2021/09/10 03:27:15;;;;;;;11.50;10.07;;;22.00;91.80;;;;;;5072457;28;20125;-83
2021/09/10 03:29:41;;;;;;;12.45;10.13;;;21.90;91.80;;;;;;5053556;28;20389;-85
2021/09/10 03:32:07;;;;;;;11.00;9.25;;;21.90;91.90;;;;;;5061921;28;20017;-84
2021/09/10 03:34:33;;;;;;;11.38;9.43;;;21.90;92.00;;;;;;5057253;28;20033;-90
2021/09/10 03:37:00;;;;;;;11.68;9.88;;;21.90;92.00;;;;;;5046920;28;20032;-91
2021/09/10 03:39:25;;;;;;;12.00;10.00;;;21.90;92.00;;;;;;5068860;28;20036;-83
2021/09/10 03:41:51;;;;;;;10.20;8.93;;;21.90;92.00;;;;;;5062374;28;20048;-84
2021/09/10 03:44:17;;;;;;;9.80;8.80;;;21.90;92.00;;;;;;5049157;28;20075;-83
2021/09/10 03:46:42;;;;;;;11.32;9.75;;;21.80;92.10;;;;;;5075801;28;20060;-83
2021/09/10 03:49:08;;;;;;;11.80;9.40;;;21.80;92.00;;;;;;5077064;28;20116;-83
2021/09/10 03:51:34;;;;;;;11.18;8.60;;;21.80;92.00;;;;;;5075953;28;20476;-83
2021/09/10 03:53:59;;;;;;;12.48;9.95;;;21.80;92.10;;;;;;5054488;28;20377;-83
2021/09/10 03:56:25;;;;;;;12.70;9.50;;;21.80;92.10;;;;;;5072434;28;20456;-82
2021/09/10 03:58:51;;;;;;;12.80;8.80;;;21.70;92.10;;;;;;5071439;28;20032;-85
2021/09/10 04:01:18;;;;;;;10.68;8.98;;;21.70;92.10;;;;;;5055169;28;20032;-83
2021/09/10 04:03:44;;;;;;;11.57;9.43;;;21.70;92.20;;;;;;5052051;28;20029;-84
2021/09/10 04:06:10;;;;;;;10.20;8.77;;;21.70;92.20;;;;;;5052158;28;20043;-84
2021/09/10 04:08:36;;;;;;;10.77;9.00;;;21.70;92.20;;;;;;5072149;28;20074;-84
2021/09/10 04:11:02;;;;;;;10.70;9.23;;;21.60;92.20;;;;;;5042276;28;20431;-86
2021/09/10 04:13:28;;;;;;;10.63;9.18;;;21.60;92.20;;;;;;5051654;28;20389;-84
2021/09/10 04:15:53;;;;;;;12.45;9.30;;;21.60;92.30;;;;;;5035209;28;20375;-85
2021/09/10 04:18:19;;;;;;;9.80;8.18;;;21.60;92.30;;;;;;5067532;28;20111;-82
2021/09/10 04:20:45;;;;;;;11.32;9.25;;;21.50;92.50;;;;;;5071794;28;20090;-84
2021/09/10 04:23:10;;;;;;;13.18;9.13;;;21.50;92.20;;;;;;5061559;28;20461;-83
2021/09/10 04:25:36;;;;;;;11.23;9.10;;;21.50;92.30;;;;;;5052472;28;20400;-84
2021/09/10 04:28:02;;;;;;;10.85;9.45;;;21.40;92.30;;;;;;5082212;28;20062;-87
2021/09/10 04:30:28;;;;;;;11.18;8.93;;;21.40;92.20;;;;;;5066524;28;20081;-83
2021/09/10 04:32:54;;;;;;;10.65;9.23;;;21.40;92.30;;;;;;5082175;28;20033;-85
2021/09/10 04:35:20;;;;;;;10.27;8.85;;;21.40;92.40;;;;;;5076840;28;20029;-85
2021/09/10 04:37:46;;;;;;;12.60;9.23;;;21.30;92.40;;;;;;5095012;28;20024;-92
2021/09/10 04:40:12;;;;;;;9.88;8.68;;;21.30;92.40;;;;;;5096777;28;20008;-85
2021/09/10 04:42:38;;;;;;;11.40;8.40;;;21.20;92.50;;;;;;5096427;28;20061;-85
2021/09/10 04:45:04;;;;;;;12.70;9.50;;;21.20;92.60;;;;;;5091785;28;20083;-84
2021/09/10 04:47:30;;;;;;;10.50;8.68;;;21.20;92.60;;;;;;5086593;28;20009;-90
2021/09/10 04:49:56;;;;;;;11.75;8.20;;;21.20;92.70;;;;;;5079481;28;20040;-87
2021/09/10 04:52:22;;;;;;;10.00;8.73;;;21.20;92.90;;;;;;5066153;28;20028;-84
2021/09/10 04:54:48;;;;;;;13.68;8.82;;;21.20;92.70;;;;;;5070792;28;20396;-84
2021/09/10 04:57:13;;;;;;;11.38;8.70;;;21.20;92.70;;;;;;5058263;28;20021;-83
2021/09/10 04:59:39;;;;;;;9.48;8.18;;;21.20;92.80;;;;;;5044179;28;20031;-83
2021/09/10 05:02:05;;;;;;;9.05;7.95;;;21.10;92.80;;;;;;5060949;28;20503;-83
2021/09/10 05:04:30;;;;;;;10.82;7.97;;;21.20;92.80;;;;;;5054069;28;20021;-85
2021/09/10 05:06:56;;;;;;;12.20;8.77;;;21.10;92.80;;;;;;5042932;28;20381;-83
2021/09/10 05:09:22;;;;;;;10.18;7.95;;;21.10;92.80;;;;;;5064072;28;20404;-84
2021/09/10 05:11:47;;;;;;;9.25;8.13;;;21.10;92.80;;;;;;5054186;28;20025;-83
2021/09/10 05:14:14;;;;;;;9.82;8.10;;;21.10;92.90;;;;;;5048770;28;20128;-83
2021/09/10 05:16:40;;;;;;;11.48;8.73;;;21.10;92.80;;;;;;5064816;28;20021;-84
2021/09/10 05:19:06;;;;;;;10.60;8.25;;;21.00;92.80;;;;;;5061793;28;20090;-84
2021/09/10 05:21:32;;;;;;;9.18;8.18;;;21.00;92.80;;;;;;5054595;28;20477;-86
2021/09/10 05:23:58;;;;;;;10.70;7.60;;;21.00;92.80;;;;;;5074046;28;20033;-83
2021/09/10 05:26:24;;;;;;;8.45;7.50;;;21.00;92.80;;;;;;5077238;28;20052;-87
2021/09/10 05:28:50;;;;;;;10.38;7.93;;;21.00;92.90;;;;;;5075853;28;20029;-84
2021/09/10 05:31:16;;;;;;;12.63;8.30;;;21.00;92.90;;;;;;5052166;28;20032;-85
2021/09/10 05:33:41;;;;;;;9.35;7.70;;;20.90;93.00;;;;;;5066629;28;20033;-84
2021/09/10 05:36:07;;;;;;;9.98;8.35;;;20.90;93.00;;;;;;5046760;28;20111;-83
2021/09/10 05:38:33;;;;;;;11.30;8.50;;;20.90;93.10;;;;;;5066598;28;20374;-84
2021/09/10 05:40:59;;;;;;;9.40;7.70;;;20.90;93.10;;;;;;5055632;28;20445;-84
2021/09/10 05:43:26;;;;;;;9.82;8.82;;;20.90;93.20;;;;;;5072007;28;20412;-86
2021/09/10 05:45:51;;;;;;;9.70;8.10;;;20.90;93.20;;;;;;5073049;28;20465;-84
2021/09/10 05:48:20;;;;;;;9.60;8.00;;;21.00;93.30;;;;;;5074062;28;20071;-86
2021/09/10 05:50:46;;;;;;;10.18;8.60;;;21.00;93.40;;;;;;5075226;28;20111;-84
2021/09/10 05:53:13;;;;;;;10.90;8.82;;;21.00;93.40;;;;;;5065588;28;20390;-83
2021/09/10 05:55:39;;;;;;;9.02;7.90;;;21.00;93.40;;;;;;5038365;28;20025;-84
2021/09/10 05:58:05;;;;;;;11.95;8.00;;;21.00;93.50;;;;;;5059671;28;20058;-84
2021/09/10 06:00:31;;;;;;;10.95;8.50;;;21.00;93.60;;;;;;5068960;28;20025;-84
2021/09/10 06:02:56;;;;;;;11.65;8.55;;;21.00;93.70;;;;;;5044338;28;20067;-84
2021/09/10 06:05:22;;;;;;;11.93;9.15;;;21.00;93.80;;;;;;5056479;28;20037;-83
2021/09/10 06:07:48;;;;;;;9.98;8.82;;;21.00;93.80;;;;;;5074190;28;20401;-85
2021/09/10 06:10:15;;;;;;;9.52;8.48;;;21.00;93.90;;;;;;5057662;28;20041;-84
2021/09/10 06:12:41;;;;;;;12.90;9.18;;;21.00;93.90;;;;;;5074554;28;20035;-85
2021/09/10 06:15:08;;;;;;;12.10;9.55;;;21.00;93.90;;;;;;5054074;28;20512;-84
2021/09/10 06:17:33;;;;;;;10.73;9.25;;;21.00;94.00;;;;;;5047602;28;20147;-84
2021/09/10 06:19:59;;;;;;;11.00;9.25;;;21.00;94.20;;;;;;5061208;28;20096;-83
2021/09/10 06:22:27;;;;;;;11.95;9.80;;;21.00;94.30;;;;;;5057044;28;20033;-83
2021/09/10 06:24:53;;;;;;;13.55;9.60;;;21.00;94.40;;;;;;5070807;28;20025;-83
2021/09/10 06:27:19;;;;;;;10.48;9.13;;;21.00;94.40;;;;;;5064233;28;20074;-84
2021/09/10 06:29:45;;;;;;;11.02;9.35;;;21.00;94.50;;;;;;5054186;28;20113;-83
2021/09/10 06:32:11;;;;;;;11.68;9.05;;;21.00;94.50;;;;;;5040449;28;20039;-84
2021/09/10 06:34:36;;;;;;;11.13;8.88;;;20.90;94.60;;;;;;5074654;28;20442;-85
2021/09/10 06:37:02;;;;;;;11.43;10.23;;;21.00;94.50;;;;;;5066949;28;20040;-85
2021/09/10 06:39:28;;;;;;;12.70;8.63;;;21.00;94.70;;;;;;5067536;28;20032;-84
2021/09/10 06:41:57;;;;;;;10.95;8.85;;;20.90;94.60;;;;;;5059971;28;20600;-84
2021/09/10 06:44:23;;;;;;;11.88;9.43;;;21.00;94.70;;;;;;5061856;28;20087;-84
2021/09/10 06:46:49;;;;;;;11.48;8.77;;;21.00;94.70;;;;;;5068698;28;20043;-86
2021/09/10 06:49:16;;;;;;;11.25;8.82;;;21.00;94.60;;;;;;5054752;28;20021;-85
2021/09/10 06:51:42;;;;;;;10.68;8.30;;;21.00;94.60;;;;;;5071416;28;20681;-84
2021/09/10 06:54:08;;;;;;;11.80;8.82;;;21.00;94.60;;;;;;5073398;28;20037;-85
2021/09/10 06:56:35;;;;;;;11.80;8.20;;;21.00;94.60;;;;;;5056596;28;20047;-85
2021/09/10 06:59:00;;;;;;;12.15;9.55;;;21.00;94.60;;;;;;5071384;28;20027;-84
2021/09/10 07:01:27;;;;;;;9.88;8.75;;;21.00;94.70;;;;;;5075041;28;20376;-85
2021/09/10 07:03:52;;;;;;;11.88;8.73;;;21.00;94.70;;;;;;5053166;28;20094;-84
2021/09/10 07:06:18;;;;;;;12.63;9.68;;;21.00;94.70;;;;;;5069447;28;20481;-86
2021/09/10 07:08:44;;;;;;;11.02;9.05;;;21.00;94.70;;;;;;5056673;28;21180;-86
2021/09/10 07:11:13;;;;;;;11.50;9.25;;;21.00;94.70;;;;;;5058066;28;20033;-86
2021/09/10 07:13:38;;;;;;;11.10;9.07;;;21.00;94.70;;;;;;5066125;28;20057;-85
2021/09/10 07:16:05;;;;;;;13.02;9.35;;;21.00;94.70;;;;;;5061351;28;20064;-85
2021/09/10 07:18:31;;;;;;;9.88;8.48;;;21.10;94.70;;;;;;5060972;28;20032;-84
2021/09/10 07:20:58;;;;;;;9.40;8.05;;;21.00;94.60;;;;;;5045233;28;20025;-85
2021/09/10 07:23:24;;;;;;;10.82;8.45;;;21.10;94.60;;;;;;5038931;28;20044;-84
2021/09/10 07:25:50;;;;;;;12.52;9.25;;;21.10;94.60;;;;;;5067676;28;20536;-87
2021/09/10 07:28:15;;;;;;;9.40;8.10;;;21.10;94.60;;;;;;5060878;28;20088;-84
2021/09/10 07:30:41;;;;;;;11.07;9.05;;;21.10;94.60;;;;;;5063103;28;20060;-85
2021/09/10 07:33:07;;;;;;;12.80;8.30;;;21.10;94.60;;;;;;5060997;28;20492;-84
2021/09/10 07:35:33;;;;;;;9.68;7.63;;;21.10;94.80;;;;;;5071542;28;20071;-85
2021/09/10 07:37:59;;;;;;;9.60;8.13;;;21.10;94.60;;;;;;5070763;28;20047;-85
2021/09/10 07:40:25;;;;;;;11.35;8.68;;;21.10;94.50;;;;;;5031750;28;20038;-84
2021/09/10 07:42:51;;;;;;;10.90;8.30;;;21.10;94.50;;;;;;5074166;28;20471;-87
2021/09/10 07:45:17;;;;;;;11.65;9.20;;;21.20;94.50;;;;;;5050181;28;20124;-85
2021/09/10 07:47:43;;;;;;;10.95;8.82;;;21.20;94.60;;;;;;5069736;28;20052;-85
2021/09/10 07:50:10;;;;;;;9.52;8.38;;;21.20;94.60;;;;;;5073307;28;20025;-84
2021/09/10 07:52:36;;;;;;;10.38;8.75;;;21.20;94.70;;;;;;5074508;28;20024;-84
2021/09/10 07:55:02;;;;;;;11.43;9.82;;;21.20;94.80;;;;;;5056114;28;20040;-84
2021/09/10 07:57:28;;;;;;;11.20;9.20;;;21.20;94.70;;;;;;5062662;28;20032;-84
2021/09/10 07:59:56;;;;;;;12.10;9.93;;;21.20;94.70;;;;;;5067893;28;20039;-85
2021/09/10 08:02:26;;;;;;;11.90;9.45;;;21.20;94.70;;;;;;5037349;28;20354;-84
2021/09/10 08:04:51;;;;;;;13.32;8.93;;;21.20;94.70;;;;;;5055643;28;20040;-85
2021/09/10 08:07:17;;;;;;;11.05;9.35;;;21.20;94.80;;;;;;5063681;28;20024;-85
2021/09/10 08:09:43;;;;;;;12.48;9.68;;;21.20;94.70;;;;;;5036926;28;20031;-83
2021/09/10 08:12:09;;;;;;;12.52;9.95;;;21.30;94.80;;;;;;5074202;28;20107;-83
2021/09/10 08:14:35;;;;;;;12.75;9.60;;;21.30;94.70;;;;;;5057422;28;20037;-84
2021/09/10 08:17:00;;;;;;;13.73;9.55;;;21.20;94.70;;;;;;5087995;28;20032;-83
2021/09/10 08:19:26;;;;;;;13.70;9.85;;;21.30;94.70;;;;;;5080263;28;20052;-92
2021/09/10 08:21:52;;;;;;;14.32;10.13;;;21.30;94.70;;;;;;5091169;28;20012;-84
2021/09/10 08:24:18;;;;;;;12.35;9.75;;;21.30;94.70;;;;;;5065614;28;20036;-85
2021/09/10 08:26:45;;;;;;;11.98;9.98;;;21.30;94.60;;;;;;5090410;28;20120;-85
2021/09/10 08:29:11;;;;;;;11.10;8.73;;;21.30;94.60;;;;;;5085281;28;20029;-85
2021/09/10 08:31:37;;;;;;;14.48;8.82;;;21.40;94.50;;;;;;5062567;28;20037;-84
2021/09/10 08:34:04;;;;;;;10.63;8.98;;;21.40;94.50;;;;;;5037950;28;20036;-87
2021/09/10 08:36:31;;;;;;;14.35;9.18;;;21.40;94.50;;;;;;5069676;28;20054;-86
2021/09/10 08:38:57;;;;;;;15.00;10.20;;;21.40;94.40;;;;;;5058766;28;20048;-82
2021/09/10 08:41:26;;;;;;;12.15;10.30;;;21.40;94.30;;;;;;5060264;28;20048;-82
2021/09/10 08:43:55;;;;;;;13.13;9.80;;;21.40;94.30;;;;;;5061041;28;20032;-83
2021/09/10 08:46:21;;;;;;;14.13;9.27;;;21.40;94.20;;;;;;5062581;28;20120;-81
2021/09/10 08:48:46;;;;;;;14.57;10.50;;;21.40;94.30;;;;;;5065599;28;20427;-82
2021/09/10 08:51:14;;;;;;;12.45;9.88;;;21.50;94.60;;;;;;5079027;28;20024;-82
2021/09/10 08:53:41;;;;;;;14.43;9.80;;;21.40;94.30;;;;;;5081557;28;20017;-82
2021/09/10 08:56:06;;;;;;;11.77;8.85;;;21.50;94.30;;;;;;5062799;28;20024;-81
2021/09/10 08:58:32;;;;;;;15.52;10.70;;;21.50;94.30;;;;;;5088619;28;20032;-81
2021/09/10 09:00:59;;;;;;;15.27;10.25;;;21.50;94.20;;;;;;5029376;28;20062;-81
2021/09/10 09:03:28;;;;;;;11.77;9.60;;;21.50;94.30;;;;;;5074534;28;20064;-82
2021/09/10 09:05:54;;;;;;;13.95;9.15;;;21.50;94.30;;;;;;5049182;28;20032;-81
2021/09/10 09:08:19;;;;;;;10.77;8.60;;;21.60;94.20;;;;;;5067585;28;20373;-82
2021/09/10 09:10:56;;;;;;;14.00;9.88;;;21.60;94.20;;;;;;5081973;28;20106;-81
2021/09/10 09:13:23;;;;;;;13.15;9.82;;;21.60;94.30;;;;;;5084990;28;20077;-81
2021/09/10 09:16:09;;;;;;;9.93;8.48;;;21.60;94.30;;;;;;5057734;28;20017;-81
2021/09/10 09:18:59;;;;;;;16.23;8.52;;;21.70;94.30;;;;;;5063142;28;20034;-81
2021/09/10 09:21:30;;;;;;;10.95;8.52;;;21.70;94.30;;;;;;5068010;28;20086;-82
2021/09/10 09:23:58;;;;;;;10.20;7.45;;;21.80;94.20;;;;;;5074332;28;20045;-81
2021/09/10 09:26:27;;;;;;;11.63;7.93;;;21.90;94.20;;;;;;5059053;28;20021;-82
2021/09/10 09:29:13;;;;;;;10.75;8.05;;;21.90;94.10;;;;;;5059430;28;20078;-81
2021/09/10 09:31:40;;;;;;;10.88;8.60;;;22.00;94.00;;;;;;5070629;28;20029;-81
2021/09/10 09:34:07;;;;;;;9.30;8.00;;;22.00;93.70;;;;;;5061986;28;20028;-81
2021/09/10 09:36:34;;;;;;;11.73;9.05;;;22.10;93.70;;;;;;5056886;28;20016;-81
2021/09/10 09:39:10;;;;;;;9.60;7.57;;;22.10;93.60;;;;;;5081061;28;20020;-81
2021/09/10 09:41:43;;;;;;;8.75;6.95;;;22.10;93.60;;;;;;5080427;28;20504;-80
2021/09/10 09:44:13;;;;;;;12.43;8.57;;;22.20;93.60;;;;;;5067667;28;20127;-80
2021/09/10 09:46:46;;;;;;;10.57;8.00;;;22.20;93.50;;;;;;5034784;28;20021;-81
2021/09/10 09:49:14;;;;;;;14.43;7.40;;;22.30;93.40;;;;;;5091039;28;20298;-81
2021/09/10 09:52:02;;;;;;;11.10;7.85;;;22.30;93.50;;;;;;5040935;28;20028;-81
2021/09/10 09:54:28;;;;;;;11.90;8.07;;;22.40;93.50;;;;;;5063775;28;20039;-81
2021/09/10 09:56:58;;;;;;;11.52;7.47;;;22.50;93.20;;;;;;5055876;28;20028;-80
2021/09/10 09:59:24;;;;;;;14.57;7.60;;;22.50;93.30;;;;;;5088724;28;20024;-81
2021/09/10 10:01:49;;;;;;;11.48;7.32;;;22.60;93.30;;;;;;5057732;28;20085;-81
2021/09/10 10:04:15;;;;;;;9.23;6.93;;;22.70;93.20;;;;;;5073335;28;20044;-80
2021/09/10 10:06:43;;;;;;;9.18;7.18;;;22.80;93.10;;;;;;5072618;28;20029;-80
2021/09/10 10:09:15;;;;;;;11.52;7.55;;;22.90;92.90;;;;;;5083010;28;20025;-80
2021/09/10 10:11:43;;;;;;;8.43;5.90;;;22.90;92.50;;;;;;5073708;28;20020;-81
2021/09/10 10:14:28;;;;;;;11.95;7.00;;;22.90;92.60;;;;;;5086610;28;20028;-80
2021/09/10 10:16:54;;;;;;;9.23;6.65;;;23.00;92.30;;;;;;5072805;28;20024;-80
2021/09/10 10:19:19;;;;;;;9.18;6.28;;;23.00;92.10;;;;;;5076106;28;20487;-81
2021/09/10 10:21:59;;;;;;;8.85;6.65;;;23.10;92.00;;;;;;5074954;28;20379;-80
2021/09/10 10:24:41;;;;;;;8.55;5.55;;;23.10;92.00;;;;;;5087525;28;20036;-80
2021/09/10 10:27:28;;;;;;;11.18;6.25;;;23.20;91.80;;;;;;5075064;28;20024;-80
2021/09/10 10:29:53;;;;;;;9.50;6.93;;;23.20;91.70;;;;;;5093546;28;20081;-80
2021/09/10 10:32:32;;;;;;;11.15;7.43;;;23.20;91.60;;;;;;5091035;28;20130;-80
2021/09/10 10:35:25;;;;;;;9.15;7.15;;;23.20;91.60;;;;;;5064556;28;20030;-80
2021/09/10 10:38:10;;;;;;;10.52;7.40;;;23.30;91.90;;;;;;5077258;28;20338;-79
2021/09/10 10:40:36;;;;;;;11.32;8.05;;;23.30;91.70;;;;;;5077685;28;20020;-81
2021/09/10 10:43:05;;;;;;;9.73;7.60;;;23.30;91.60;;;;;;5091444;28;20400;-82
2021/09/10 10:45:44;;;;;;;9.77;6.78;;;23.30;91.50;;;;;;5085975;28;20063;-82
2021/09/10 10:48:28;;;;;;;11.18;7.35;;;23.40;91.60;;;;;;5077178;28;20019;-81
2021/09/10 10:50:58;;;;;;;10.18;6.90;;;23.40;91.50;;;;;;5095724;28;20032;-85
2021/09/10 10:53:24;;;;;;;12.10;7.13;;;23.40;91.30;;;;;;5072841;28;20032;-85
2021/09/10 10:55:49;;;;;;;10.35;6.88;;;23.40;91.30;;;;;;5053126;28;20036;-84
2021/09/10 10:58:26;;;;;;;10.35;6.82;;;23.50;91.40;;;;;;5095940;28;20048;-84
2021/09/10 11:01:01;;;;;;;10.05;5.95;;;23.60;91.70;;;;;;5058431;28;20031;-85
2021/09/10 11:03:27;;;;;;;7.25;4.63;;;23.60;91.20;;;;;;5077830;28;20067;-82
2021/09/10 11:05:55;;;;;;;8.50;4.15;;;23.70;90.50;;;;;;5071213;28;20053;-86
2021/09/10 11:08:38;;;;;;;7.18;3.92;;;23.70;90.50;;;;;;5057920;28;20024;-81
2021/09/10 11:11:04;;;;;;;7.57;5.65;;;23.80;90.80;;;;;;5062528;28;20127;-80
2021/09/10 11:13:30;;;;;;;8.23;5.18;;;23.90;90.70;;;;;;5068795;28;20384;-82
2021/09/10 11:15:56;;;;;;;7.88;4.75;;;24.00;89.90;;;;;;5060579;28;20024;-82
2021/09/10 11:18:26;;;;;;;9.30;4.93;;;24.10;89.80;;;;;;5084418;28;20028;-83
2021/09/10 11:20:53;;;;;;;6.53;3.97;;;24.10;89.90;;;;;;5068164;28;20040;-83
2021/09/10 11:23:27;;;;;;;7.13;4.70;;;24.20;90.00;;;;;;5094846;28;20456;-83
2021/09/10 11:25:55;;;;;;;9.35;4.85;;;24.30;89.20;;;;;;5068806;28;20111;-81
2021/09/10 11:28:23;;;;;;;8.35;4.57;;;24.40;89.20;;;;;;5100489;28;20099;-95
2021/09/10 11:30:50;;;;;;;6.57;4.20;;;24.40;88.80;;;;;;5080724;28;20031;-94
2021/09/10 11:33:17;;;;;;;6.97;4.70;;;24.50;88.30;;;;;;5076826;28;20036;-94
2021/09/10 11:35:44;;;;;;;5.93;4.00;;;24.60;88.20;;;;;;5083427;28;20029;-95
2021/09/10 11:38:18;;;;;;;6.07;3.72;;;24.70;88.20;;;;;;5070579;28;20111;-95
2021/09/10 11:40:52;;;;;;;5.95;4.00;;;24.70;88.30;;;;;;5086953;28;20020;-95
2021/09/10 11:43:27;;;;;;;6.78;4.45;;;24.80;88.30;;;;;;5085716;28;20557;-96
2021/09/10 11:45:54;;;;;;;8.02;4.75;;;24.80;88.20;;;;;;5083521;28;20046;-95
2021/09/10 11:48:20;;;;;;;7.43;5.07;;;24.80;87.60;;;;;;5095941;28;20013;-83
2021/09/10 11:51:01;;;;;;;9.50;5.30;;;24.80;87.60;;;;;;5077089;28;20024;-83
2021/09/10 11:53:31;;;;;;;7.18;4.75;;;24.80;87.70;;;;;;5077434;28;20024;-83
2021/09/10 11:56:07;;;;;;;8.13;5.18;;;24.70;87.90;;;;;;5077397;28;20429;-84
2021/09/10 11:58:36;;;;;;;9.95;6.00;;;24.70;88.30;;;;;;5072272;28;20024;-87
2021/09/10 12:01:12;;;;;;;10.73;6.60;;;24.70;89.40;;;;;;5111267;28;20012;-88
2021/09/10 12:03:58;;;;;;;10.23;6.60;;;24.70;90.40;;;;;;5113583;28;20020;-86
2021/09/10 12:06:29;;;;;;;9.18;5.95;;;24.70;90.60;;;;;;5086731;28;20017;-91
2021/09/10 12:09:19;;;;;;;8.57;6.13;;;24.70;90.90;;;;;;5100609;28;20024;-86
2021/09/10 12:12:12;;;;;;;11.02;6.70;;;24.70;91.50;;;;;;5094557;28;20048;-85
2021/09/10 12:15:02;;;;;;;9.10;6.82;;;24.60;91.70;;;;;;5092533;28;20595;-85
2021/09/10 12:17:37;;;;;;;9.48;6.95;;;24.50;92.10;;;;;;5083540;28;20024;-85
2021/09/10 12:20:16;;;;;;;11.82;7.30;;;24.50;92.00;;;;;;5071733;28;20039;-83
2021/09/10 12:22:49;;;;;;;9.68;7.10;;;24.40;92.30;;;;;;5092782;28;20040;-83
2021/09/10 12:25:26;;;;;;;9.05;6.85;;;24.40;92.50;;;;;;5092876;28;20028;-84
2021/09/10 12:28:00;;;;;;;10.10;6.95;;;24.30;92.60;;;;;;5061477;28;20025;-85
2021/09/10 12:30:27;;;;;;;10.07;7.53;;;24.30;92.70;;;;;;5084176;28;20040;-83
2021/09/10 12:32:54;;;;;;;11.30;7.38;;;24.20;92.80;;;;;;5090567;28;20031;-82
2021/09/10 12:35:20;;;;;;;13.38;7.82;;;24.20;93.10;;;;;;5093733;28;20023;-83
2021/09/10 12:38:00;;;;;;;11.55;7.95;;;24.20;93.40;;;;;;5075269;28;20032;-83